sensor_id;sensor_type;location;lat;lon;timestamp;P1;durP1;ratioP1;P2;durP2;ratioP2
51556;SDS011;38766;53.194;5.532;2023-05-29T00:01:40;17.13;;;3.65;;
51556;SDS011;38766;53.194;5.532;2023-05-29T00:04:05;15.13;;;3.95;;
51556;SDS011;38766;53.194;5.532;2023-05-29T00:06:31;13.77;;;3.63;;
51556;SDS011;38766;53.194;5.532;2023-05-29T00:08:57;17.38;;;3.47;;
51556;SDS011;38766;53.194;5.532;2023-05-29T00:11:22;12.18;;;3.42;;
51556;SDS011;38766;53.194;5.532;2023-05-29T00:13:48;8.80;;;3.30;;
51556;SDS011;38766;53.194;5.532;2023-05-29T00:16:13;10.98;;;2.78;;
51556;SDS011;38766;53.194;5.532;2023-05-29T00:18:39;13.43;;;3.30;;
51556;SDS011;38766;53.194;5.532;2023-05-29T00:21:10;12.70;;;3.10;;
51556;SDS011;38766;53.194;5.532;2023-05-29T00:23:37;18.60;;;3.88;;
51556;SDS011;38766;53.194;5.532;2023-05-29T00:26:03;15.93;;;3.63;;
51556;SDS011;38766;53.194;5.532;2023-05-29T00:28:29;18.05;;;3.25;;
51556;SDS011;38766;53.194;5.532;2023-05-29T00:30:54;16.42;;;3.65;;
51556;SDS011;38766;53.194;5.532;2023-05-29T00:33:20;12.75;;;3.40;;
51556;SDS011;38766;53.194;5.532;2023-05-29T00:35:45;17.17;;;3.35;;
51556;SDS011;38766;53.194;5.532;2023-05-29T00:38:11;15.77;;;3.58;;
51556;SDS011;38766;53.194;5.532;2023-05-29T00:40:37;22.80;;;4.05;;
51556;SDS011;38766;53.194;5.532;2023-05-29T00:43:04;11.25;;;2.72;;
51556;SDS011;38766;53.194;5.532;2023-05-29T00:45:30;18.48;;;3.58;;
51556;SDS011;38766;53.194;5.532;2023-05-29T00:47:57;14.27;;;3.75;;
51556;SDS011;38766;53.194;5.532;2023-05-29T00:50:23;12.60;;;2.70;;
51556;SDS011;38766;53.194;5.532;2023-05-29T00:52:48;15.93;;;3.20;;
51556;SDS011;38766;53.194;5.532;2023-05-29T00:55:15;18.92;;;3.30;;
51556;SDS011;38766;53.194;5.532;2023-05-29T00:57:41;12.52;;;3.53;;
51556;SDS011;38766;53.194;5.532;2023-05-29T01:00:08;15.82;;;3.00;;
51556;SDS011;38766;53.194;5.532;2023-05-29T01:02:38;13.13;;;3.08;;
51556;SDS011;38766;53.194;5.532;2023-05-29T01:05:09;11.77;;;3.25;;
51556;SDS011;38766;53.194;5.532;2023-05-29T01:07:36;14.55;;;2.92;;
51556;SDS011;38766;53.194;5.532;2023-05-29T01:10:02;16.52;;;3.13;;
51556;SDS011;38766;53.194;5.532;2023-05-29T01:15:14;14.40;;;3.45;;
51556;SDS011;38766;53.194;5.532;2023-05-29T01:20:37;10.73;;;2.80;;
51556;SDS011;38766;53.194;5.532;2023-05-29T01:28:31;13.90;;;3.10;;
51556;SDS011;38766;53.194;5.532;2023-05-29T01:31:02;15.43;;;3.67;;
51556;SDS011;38766;53.194;5.532;2023-05-29T01:33:29;8.68;;;2.58;;
51556;SDS011;38766;53.194;5.532;2023-05-29T01:35:55;13.63;;;3.75;;
51556;SDS011;38766;53.194;5.532;2023-05-29T01:38:20;14.40;;;3.28;;
51556;SDS011;38766;53.194;5.532;2023-05-29T01:40:46;14.30;;;3.50;;
51556;SDS011;38766;53.194;5.532;2023-05-29T01:43:12;9.25;;;2.72;;
51556;SDS011;38766;53.194;5.532;2023-05-29T01:45:39;12.05;;;3.50;;
51556;SDS011;38766;53.194;5.532;2023-05-29T01:48:05;11.38;;;3.10;;
51556;SDS011;38766;53.194;5.532;2023-05-29T01:50:31;11.60;;;3.70;;
51556;SDS011;38766;53.194;5.532;2023-05-29T01:52:58;17.08;;;3.55;;
51556;SDS011;38766;53.194;5.532;2023-05-29T01:55:24;12.10;;;3.30;;
51556;SDS011;38766;53.194;5.532;2023-05-29T01:57:49;16.83;;;3.35;;
51556;SDS011;38766;53.194;5.532;2023-05-29T02:00:16;10.30;;;3.38;;
51556;SDS011;38766;53.194;5.532;2023-05-29T02:02:44;14.00;;;2.88;;
51556;SDS011;38766;53.194;5.532;2023-05-29T02:05:09;9.75;;;3.00;;
51556;SDS011;38766;53.194;5.532;2023-05-29T02:07:35;13.85;;;3.13;;
51556;SDS011;38766;53.194;5.532;2023-05-29T02:10:04;14.60;;;3.55;;
51556;SDS011;38766;53.194;5.532;2023-05-29T02:12:30;15.60;;;3.28;;
51556;SDS011;38766;53.194;5.532;2023-05-29T02:14:56;11.85;;;3.25;;
51556;SDS011;38766;53.194;5.532;2023-05-29T02:17:21;15.27;;;2.92;;
51556;SDS011;38766;53.194;5.532;2023-05-29T02:19:48;9.50;;;2.53;;
51556;SDS011;38766;53.194;5.532;2023-05-29T02:22:13;12.35;;;3.63;;
51556;SDS011;38766;53.194;5.532;2023-05-29T02:24:39;14.05;;;3.13;;
51556;SDS011;38766;53.194;5.532;2023-05-29T02:27:04;12.73;;;3.25;;
51556;SDS011;38766;53.194;5.532;2023-05-29T02:29:30;14.75;;;2.92;;
51556;SDS011;38766;53.194;5.532;2023-05-29T02:31:56;10.73;;;3.30;;
51556;SDS011;38766;53.194;5.532;2023-05-29T02:34:21;15.80;;;3.45;;
51556;SDS011;38766;53.194;5.532;2023-05-29T02:36:50;14.25;;;3.75;;
51556;SDS011;38766;53.194;5.532;2023-05-29T02:39:19;13.43;;;3.42;;
51556;SDS011;38766;53.194;5.532;2023-05-29T02:41:45;13.15;;;2.88;;
51556;SDS011;38766;53.194;5.532;2023-05-29T02:44:11;11.43;;;3.28;;
51556;SDS011;38766;53.194;5.532;2023-05-29T02:46:37;9.55;;;2.58;;
51556;SDS011;38766;53.194;5.532;2023-05-29T02:49:03;11.93;;;2.85;;
51556;SDS011;38766;53.194;5.532;2023-05-29T02:51:28;12.75;;;3.55;;
51556;SDS011;38766;53.194;5.532;2023-05-29T02:53:55;10.93;;;3.33;;
51556;SDS011;38766;53.194;5.532;2023-05-29T02:56:20;10.93;;;2.85;;
51556;SDS011;38766;53.194;5.532;2023-05-29T02:58:52;12.52;;;3.45;;
51556;SDS011;38766;53.194;5.532;2023-05-29T03:01:18;9.98;;;3.80;;
51556;SDS011;38766;53.194;5.532;2023-05-29T03:03:44;14.65;;;3.63;;
51556;SDS011;38766;53.194;5.532;2023-05-29T03:06:10;11.02;;;3.10;;
51556;SDS011;38766;53.194;5.532;2023-05-29T03:08:37;13.05;;;2.72;;
51556;SDS011;38766;53.194;5.532;2023-05-29T03:11:09;13.15;;;2.97;;
51556;SDS011;38766;53.194;5.532;2023-05-29T03:13:38;12.52;;;3.22;;
51556;SDS011;38766;53.194;5.532;2023-05-29T03:16:04;15.98;;;3.47;;
51556;SDS011;38766;53.194;5.532;2023-05-29T03:18:29;11.15;;;3.15;;
51556;SDS011;38766;53.194;5.532;2023-05-29T03:20:55;11.45;;;2.65;;
51556;SDS011;38766;53.194;5.532;2023-05-29T03:23:21;10.38;;;3.10;;
51556;SDS011;38766;53.194;5.532;2023-05-29T03:25:47;15.35;;;2.95;;
51556;SDS011;38766;53.194;5.532;2023-05-29T03:28:12;13.27;;;2.75;;
51556;SDS011;38766;53.194;5.532;2023-05-29T03:30:38;10.32;;;2.78;;
51556;SDS011;38766;53.194;5.532;2023-05-29T03:33:03;11.07;;;2.53;;
51556;SDS011;38766;53.194;5.532;2023-05-29T03:35:30;16.55;;;2.70;;
51556;SDS011;38766;53.194;5.532;2023-05-29T03:37:55;10.70;;;3.15;;
51556;SDS011;38766;53.194;5.532;2023-05-29T03:40:21;9.15;;;2.22;;
51556;SDS011;38766;53.194;5.532;2023-05-29T03:42:47;11.02;;;3.17;;
51556;SDS011;38766;53.194;5.532;2023-05-29T03:45:12;9.48;;;2.50;;
51556;SDS011;38766;53.194;5.532;2023-05-29T03:47:38;11.57;;;2.80;;
51556;SDS011;38766;53.194;5.532;2023-05-29T03:50:03;13.25;;;2.70;;
51556;SDS011;38766;53.194;5.532;2023-05-29T03:52:29;11.88;;;2.67;;
51556;SDS011;38766;53.194;5.532;2023-05-29T03:54:55;9.40;;;3.17;;
51556;SDS011;38766;53.194;5.532;2023-05-29T03:57:21;7.45;;;2.15;;
51556;SDS011;38766;53.194;5.532;2023-05-29T03:59:46;11.32;;;2.47;;
51556;SDS011;38766;53.194;5.532;2023-05-29T04:02:12;13.43;;;3.22;;
51556;SDS011;38766;53.194;5.532;2023-05-29T04:04:37;13.68;;;2.95;;
51556;SDS011;38766;53.194;5.532;2023-05-29T04:07:04;11.23;;;2.65;;
51556;SDS011;38766;53.194;5.532;2023-05-29T04:09:31;9.85;;;3.30;;
51556;SDS011;38766;53.194;5.532;2023-05-29T04:11:57;13.63;;;3.22;;
51556;SDS011;38766;53.194;5.532;2023-05-29T04:14:24;16.75;;;3.30;;
51556;SDS011;38766;53.194;5.532;2023-05-29T04:16:50;14.27;;;3.15;;
51556;SDS011;38766;53.194;5.532;2023-05-29T04:19:16;11.07;;;2.80;;
51556;SDS011;38766;53.194;5.532;2023-05-29T04:21:41;9.05;;;2.63;;
51556;SDS011;38766;53.194;5.532;2023-05-29T04:24:07;13.52;;;2.83;;
51556;SDS011;38766;53.194;5.532;2023-05-29T04:26:33;12.25;;;3.00;;
51556;SDS011;38766;53.194;5.532;2023-05-29T04:28:58;11.35;;;2.95;;
51556;SDS011;38766;53.194;5.532;2023-05-29T04:31:27;11.77;;;3.20;;
51556;SDS011;38766;53.194;5.532;2023-05-29T04:33:53;10.70;;;2.63;;
51556;SDS011;38766;53.194;5.532;2023-05-29T04:36:23;15.30;;;3.13;;
51556;SDS011;38766;53.194;5.532;2023-05-29T04:38:52;14.75;;;3.22;;
51556;SDS011;38766;53.194;5.532;2023-05-29T04:41:19;15.13;;;3.67;;
51556;SDS011;38766;53.194;5.532;2023-05-29T04:43:48;9.38;;;3.05;;
51556;SDS011;38766;53.194;5.532;2023-05-29T04:46:15;12.82;;;3.10;;
51556;SDS011;38766;53.194;5.532;2023-05-29T04:48:41;12.02;;;2.70;;
51556;SDS011;38766;53.194;5.532;2023-05-29T04:51:08;10.95;;;3.05;;
51556;SDS011;38766;53.194;5.532;2023-05-29T04:53:36;13.85;;;3.40;;
51556;SDS011;38766;53.194;5.532;2023-05-29T04:56:06;9.85;;;2.75;;
51556;SDS011;38766;53.194;5.532;2023-05-29T04:58:31;10.85;;;3.08;;
51556;SDS011;38766;53.194;5.532;2023-05-29T05:00:57;10.75;;;2.88;;
51556;SDS011;38766;53.194;5.532;2023-05-29T05:03:24;9.90;;;3.22;;
51556;SDS011;38766;53.194;5.532;2023-05-29T05:05:50;14.50;;;3.33;;
51556;SDS011;38766;53.194;5.532;2023-05-29T05:08:16;9.23;;;2.92;;
51556;SDS011;38766;53.194;5.532;2023-05-29T05:10:42;15.75;;;3.40;;
51556;SDS011;38766;53.194;5.532;2023-05-29T05:13:08;11.07;;;2.33;;
51556;SDS011;38766;53.194;5.532;2023-05-29T05:15:34;12.23;;;3.00;;
51556;SDS011;38766;53.194;5.532;2023-05-29T05:18:00;11.88;;;2.78;;
51556;SDS011;38766;53.194;5.532;2023-05-29T05:20:25;13.15;;;2.95;;
51556;SDS011;38766;53.194;5.532;2023-05-29T05:22:51;12.95;;;3.20;;
51556;SDS011;38766;53.194;5.532;2023-05-29T05:25:16;14.23;;;3.45;;
51556;SDS011;38766;53.194;5.532;2023-05-29T05:27:42;12.48;;;3.35;;
51556;SDS011;38766;53.194;5.532;2023-05-29T05:30:08;11.30;;;2.50;;
51556;SDS011;38766;53.194;5.532;2023-05-29T05:32:34;12.98;;;3.63;;
51556;SDS011;38766;53.194;5.532;2023-05-29T05:35:00;16.25;;;3.55;;
51556;SDS011;38766;53.194;5.532;2023-05-29T05:37:26;14.15;;;3.00;;
51556;SDS011;38766;53.194;5.532;2023-05-29T05:39:51;14.38;;;3.30;;
51556;SDS011;38766;53.194;5.532;2023-05-29T05:42:18;10.63;;;3.20;;
51556;SDS011;38766;53.194;5.532;2023-05-29T05:44:44;12.85;;;2.83;;
51556;SDS011;38766;53.194;5.532;2023-05-29T05:47:10;10.10;;;2.95;;
51556;SDS011;38766;53.194;5.532;2023-05-29T05:49:36;10.13;;;2.72;;
51556;SDS011;38766;53.194;5.532;2023-05-29T05:52:01;14.73;;;2.72;;
51556;SDS011;38766;53.194;5.532;2023-05-29T05:54:27;14.75;;;3.72;;
51556;SDS011;38766;53.194;5.532;2023-05-29T05:56:52;15.82;;;3.10;;
51556;SDS011;38766;53.194;5.532;2023-05-29T05:59:18;11.50;;;3.17;;
51556;SDS011;38766;53.194;5.532;2023-05-29T06:01:44;13.68;;;2.80;;
51556;SDS011;38766;53.194;5.532;2023-05-29T06:04:09;15.35;;;3.13;;
51556;SDS011;38766;53.194;5.532;2023-05-29T06:06:35;14.98;;;3.80;;
51556;SDS011;38766;53.194;5.532;2023-05-29T06:09:00;15.45;;;3.17;;
51556;SDS011;38766;53.194;5.532;2023-05-29T06:11:26;13.38;;;3.05;;
51556;SDS011;38766;53.194;5.532;2023-05-29T06:13:52;11.35;;;3.00;;
51556;SDS011;38766;53.194;5.532;2023-05-29T06:16:18;10.75;;;3.17;;
51556;SDS011;38766;53.194;5.532;2023-05-29T06:18:43;10.02;;;3.03;;
51556;SDS011;38766;53.194;5.532;2023-05-29T06:21:12;12.43;;;3.33;;
51556;SDS011;38766;53.194;5.532;2023-05-29T06:23:38;16.42;;;3.33;;
51556;SDS011;38766;53.194;5.532;2023-05-29T06:26:04;15.20;;;3.55;;
51556;SDS011;38766;53.194;5.532;2023-05-29T06:28:29;16.10;;;3.47;;
51556;SDS011;38766;53.194;5.532;2023-05-29T06:30:56;15.80;;;3.47;;
51556;SDS011;38766;53.194;5.532;2023-05-29T06:33:21;12.15;;;2.80;;
51556;SDS011;38766;53.194;5.532;2023-05-29T06:35:47;15.00;;;3.83;;
51556;SDS011;38766;53.194;5.532;2023-05-29T06:38:13;16.05;;;4.20;;
51556;SDS011;38766;53.194;5.532;2023-05-29T06:40:40;14.07;;;3.83;;
51556;SDS011;38766;53.194;5.532;2023-05-29T06:43:05;17.77;;;3.60;;
51556;SDS011;38766;53.194;5.532;2023-05-29T06:45:31;16.13;;;3.90;;
51556;SDS011;38766;53.194;5.532;2023-05-29T06:47:56;13.23;;;3.42;;
51556;SDS011;38766;53.194;5.532;2023-05-29T06:50:22;18.40;;;4.07;;
51556;SDS011;38766;53.194;5.532;2023-05-29T06:52:49;16.73;;;3.60;;
51556;SDS011;38766;53.194;5.532;2023-05-29T06:55:14;16.02;;;4.50;;
51556;SDS011;38766;53.194;5.532;2023-05-29T06:57:40;15.05;;;4.28;;
51556;SDS011;38766;53.194;5.532;2023-05-29T07:00:06;15.20;;;3.80;;
51556;SDS011;38766;53.194;5.532;2023-05-29T07:02:34;15.57;;;3.90;;
51556;SDS011;38766;53.194;5.532;2023-05-29T07:04:59;12.35;;;3.58;;
51556;SDS011;38766;53.194;5.532;2023-05-29T07:07:25;19.35;;;3.67;;
51556;SDS011;38766;53.194;5.532;2023-05-29T07:09:51;14.55;;;3.88;;
51556;SDS011;38766;53.194;5.532;2023-05-29T07:12:16;12.02;;;4.20;;
51556;SDS011;38766;53.194;5.532;2023-05-29T07:14:42;12.88;;;3.22;;
51556;SDS011;38766;53.194;5.532;2023-05-29T07:17:07;19.88;;;4.25;;
51556;SDS011;38766;53.194;5.532;2023-05-29T07:19:33;18.70;;;3.90;;
51556;SDS011;38766;53.194;5.532;2023-05-29T07:21:59;16.73;;;4.30;;
51556;SDS011;38766;53.194;5.532;2023-05-29T07:24:25;20.23;;;4.57;;
51556;SDS011;38766;53.194;5.532;2023-05-29T07:26:51;17.80;;;3.92;;
51556;SDS011;38766;53.194;5.532;2023-05-29T07:29:17;15.50;;;3.88;;
51556;SDS011;38766;53.194;5.532;2023-05-29T07:31:45;18.70;;;4.38;;
51556;SDS011;38766;53.194;5.532;2023-05-29T07:34:11;14.52;;;4.80;;
51556;SDS011;38766;53.194;5.532;2023-05-29T07:36:43;21.30;;;4.10;;
51556;SDS011;38766;53.194;5.532;2023-05-29T07:39:23;14.98;;;4.40;;
51556;SDS011;38766;53.194;5.532;2023-05-29T07:41:49;13.45;;;4.15;;
51556;SDS011;38766;53.194;5.532;2023-05-29T07:44:15;18.77;;;4.18;;
51556;SDS011;38766;53.194;5.532;2023-05-29T07:46:41;13.13;;;3.88;;
51556;SDS011;38766;53.194;5.532;2023-05-29T07:49:06;18.25;;;3.55;;
51556;SDS011;38766;53.194;5.532;2023-05-29T07:51:32;15.57;;;3.95;;
51556;SDS011;38766;53.194;5.532;2023-05-29T07:53:57;13.90;;;3.80;;
51556;SDS011;38766;53.194;5.532;2023-05-29T07:56:23;20.13;;;4.97;;
51556;SDS011;38766;53.194;5.532;2023-05-29T07:58:50;13.88;;;3.92;;
51556;SDS011;38766;53.194;5.532;2023-05-29T08:01:18;18.05;;;4.05;;
51556;SDS011;38766;53.194;5.532;2023-05-29T08:03:44;12.98;;;3.85;;
51556;SDS011;38766;53.194;5.532;2023-05-29T08:06:10;17.70;;;3.50;;
51556;SDS011;38766;53.194;5.532;2023-05-29T08:08:36;15.90;;;3.97;;
51556;SDS011;38766;53.194;5.532;2023-05-29T08:11:02;17.23;;;4.18;;
51556;SDS011;38766;53.194;5.532;2023-05-29T08:13:29;18.80;;;4.07;;
51556;SDS011;38766;53.194;5.532;2023-05-29T08:15:55;13.73;;;3.78;;
51556;SDS011;38766;53.194;5.532;2023-05-29T08:18:24;16.48;;;4.03;;
51556;SDS011;38766;53.194;5.532;2023-05-29T08:20:50;17.58;;;3.92;;
51556;SDS011;38766;53.194;5.532;2023-05-29T08:23:18;13.27;;;4.18;;
51556;SDS011;38766;53.194;5.532;2023-05-29T08:25:44;16.85;;;4.28;;
51556;SDS011;38766;53.194;5.532;2023-05-29T08:28:10;15.48;;;4.07;;
51556;SDS011;38766;53.194;5.532;2023-05-29T08:30:35;13.30;;;4.13;;
51556;SDS011;38766;53.194;5.532;2023-05-29T08:33:02;16.80;;;3.83;;
51556;SDS011;38766;53.194;5.532;2023-05-29T08:35:28;15.15;;;4.07;;
51556;SDS011;38766;53.194;5.532;2023-05-29T08:37:54;19.88;;;4.53;;
51556;SDS011;38766;53.194;5.532;2023-05-29T08:40:20;13.70;;;4.07;;
51556;SDS011;38766;53.194;5.532;2023-05-29T08:42:59;13.25;;;4.15;;
51556;SDS011;38766;53.194;5.532;2023-05-29T08:48:10;15.77;;;4.07;;
51556;SDS011;38766;53.194;5.532;2023-05-29T08:50:46;14.40;;;4.22;;
51556;SDS011;38766;53.194;5.532;2023-05-29T08:53:14;17.42;;;4.35;;
51556;SDS011;38766;53.194;5.532;2023-05-29T08:55:40;14.45;;;4.35;;
51556;SDS011;38766;53.194;5.532;2023-05-29T08:58:06;17.25;;;4.00;;
51556;SDS011;38766;53.194;5.532;2023-05-29T09:00:33;19.58;;;3.97;;
51556;SDS011;38766;53.194;5.532;2023-05-29T09:02:59;17.00;;;4.25;;
51556;SDS011;38766;53.194;5.532;2023-05-29T09:05:25;18.92;;;3.65;;
51556;SDS011;38766;53.194;5.532;2023-05-29T09:07:52;19.58;;;3.75;;
51556;SDS011;38766;53.194;5.532;2023-05-29T09:10:18;15.27;;;4.13;;
51556;SDS011;38766;53.194;5.532;2023-05-29T09:12:46;19.65;;;4.32;;
51556;SDS011;38766;53.194;5.532;2023-05-29T09:15:18;12.63;;;3.35;;
51556;SDS011;38766;53.194;5.532;2023-05-29T09:17:55;14.38;;;3.67;;
51556;SDS011;38766;53.194;5.532;2023-05-29T09:20:25;19.85;;;4.32;;
51556;SDS011;38766;53.194;5.532;2023-05-29T09:25:28;15.93;;;4.03;;
51556;SDS011;38766;53.194;5.532;2023-05-29T09:27:58;14.40;;;4.13;;
51556;SDS011;38766;53.194;5.532;2023-05-29T09:33:03;16.02;;;3.88;;
51556;SDS011;38766;53.194;5.532;2023-05-29T09:35:33;19.67;;;4.03;;
51556;SDS011;38766;53.194;5.532;2023-05-29T09:38:04;12.07;;;3.45;;
51556;SDS011;38766;53.194;5.532;2023-05-29T09:40:37;15.18;;;3.78;;
51556;SDS011;38766;53.194;5.532;2023-05-29T09:43:11;16.85;;;4.10;;
51556;SDS011;38766;53.194;5.532;2023-05-29T09:45:45;25.38;;;4.50;;
51556;SDS011;38766;53.194;5.532;2023-05-29T09:48:21;19.67;;;3.92;;
51556;SDS011;38766;53.194;5.532;2023-05-29T09:50:48;16.08;;;3.70;;
51556;SDS011;38766;53.194;5.532;2023-05-29T09:55:49;14.80;;;3.80;;
51556;SDS011;38766;53.194;5.532;2023-05-29T09:58:17;13.63;;;3.78;;
51556;SDS011;38766;53.194;5.532;2023-05-29T10:00:43;12.48;;;3.80;;
51556;SDS011;38766;53.194;5.532;2023-05-29T10:03:09;17.13;;;4.13;;
51556;SDS011;38766;53.194;5.532;2023-05-29T10:05:37;20.08;;;4.63;;
51556;SDS011;38766;53.194;5.532;2023-05-29T10:08:04;15.50;;;4.28;;
51556;SDS011;38766;53.194;5.532;2023-05-29T10:10:33;14.13;;;3.85;;
51556;SDS011;38766;53.194;5.532;2023-05-29T10:13:01;16.63;;;3.78;;
51556;SDS011;38766;53.194;5.532;2023-05-29T10:15:28;17.20;;;4.15;;
51556;SDS011;38766;53.194;5.532;2023-05-29T10:18:03;14.13;;;4.22;;
51556;SDS011;38766;53.194;5.532;2023-05-29T10:20:37;13.45;;;4.43;;
51556;SDS011;38766;53.194;5.532;2023-05-29T10:23:04;13.52;;;3.80;;
51556;SDS011;38766;53.194;5.532;2023-05-29T10:25:32;15.45;;;4.53;;
51556;SDS011;38766;53.194;5.532;2023-05-29T10:28:00;15.35;;;4.25;;
51556;SDS011;38766;53.194;5.532;2023-05-29T10:35:38;16.30;;;4.05;;
51556;SDS011;38766;53.194;5.532;2023-05-29T10:38:11;18.83;;;4.13;;
51556;SDS011;38766;53.194;5.532;2023-05-29T10:40:39;15.23;;;4.60;;
51556;SDS011;38766;53.194;5.532;2023-05-29T10:43:04;13.80;;;4.25;;
51556;SDS011;38766;53.194;5.532;2023-05-29T10:50:38;15.90;;;4.00;;
51556;SDS011;38766;53.194;5.532;2023-05-29T10:53:10;19.02;;;4.30;;
51556;SDS011;38766;53.194;5.532;2023-05-29T10:55:40;17.45;;;3.92;;
51556;SDS011;38766;53.194;5.532;2023-05-29T10:58:06;14.13;;;3.63;;
51556;SDS011;38766;53.194;5.532;2023-05-29T11:00:40;15.48;;;4.22;;
51556;SDS011;38766;53.194;5.532;2023-05-29T11:03:11;12.13;;;4.10;;
51556;SDS011;38766;53.194;5.532;2023-05-29T11:13:53;11.88;;;3.65;;
51556;SDS011;38766;53.194;5.532;2023-05-29T11:18:51;11.45;;;2.75;;
51556;SDS011;38766;53.194;5.532;2023-05-29T11:24:39;15.20;;;4.20;;
51556;SDS011;38766;53.194;5.532;2023-05-29T11:27:06;12.60;;;3.85;;
51556;SDS011;38766;53.194;5.532;2023-05-29T11:29:33;11.07;;;3.40;;
51556;SDS011;38766;53.194;5.532;2023-05-29T11:32:06;13.10;;;3.33;;
51556;SDS011;38766;53.194;5.532;2023-05-29T11:34:38;14.25;;;3.35;;
51556;SDS011;38766;53.194;5.532;2023-05-29T11:37:06;10.82;;;3.17;;
51556;SDS011;38766;53.194;5.532;2023-05-29T11:39:35;12.38;;;3.45;;
51556;SDS011;38766;53.194;5.532;2023-05-29T11:42:01;14.30;;;4.35;;
51556;SDS011;38766;53.194;5.532;2023-05-29T11:44:27;12.23;;;3.33;;
51556;SDS011;38766;53.194;5.532;2023-05-29T11:47:03;11.88;;;3.33;;
51556;SDS011;38766;53.194;5.532;2023-05-29T11:49:30;11.82;;;3.50;;
51556;SDS011;38766;53.194;5.532;2023-05-29T11:52:12;10.77;;;3.58;;
51556;SDS011;38766;53.194;5.532;2023-05-29T11:54:42;13.30;;;3.13;;
51556;SDS011;38766;53.194;5.532;2023-05-29T11:57:20;12.00;;;3.30;;
51556;SDS011;38766;53.194;5.532;2023-05-29T11:59:47;10.80;;;2.87;;
51556;SDS011;38766;53.194;5.532;2023-05-29T12:02:23;13.63;;;3.10;;
51556;SDS011;38766;53.194;5.532;2023-05-29T12:05:00;13.18;;;3.47;;
51556;SDS011;38766;53.194;5.532;2023-05-29T12:07:26;9.35;;;2.83;;
51556;SDS011;38766;53.194;5.532;2023-05-29T12:09:52;14.40;;;3.20;;
51556;SDS011;38766;53.194;5.532;2023-05-29T12:12:23;11.80;;;3.35;;
51556;SDS011;38766;53.194;5.532;2023-05-29T12:14:52;12.98;;;2.97;;
51556;SDS011;38766;53.194;5.532;2023-05-29T12:17:18;13.38;;;3.47;;
51556;SDS011;38766;53.194;5.532;2023-05-29T12:19:45;12.13;;;2.90;;
51556;SDS011;38766;53.194;5.532;2023-05-29T12:22:11;11.98;;;3.10;;
51556;SDS011;38766;53.194;5.532;2023-05-29T12:24:37;9.38;;;2.90;;
51556;SDS011;38766;53.194;5.532;2023-05-29T12:27:06;11.05;;;3.13;;
51556;SDS011;38766;53.194;5.532;2023-05-29T12:29:33;10.65;;;3.80;;
51556;SDS011;38766;53.194;5.532;2023-05-29T12:31:59;11.68;;;2.70;;
51556;SDS011;38766;53.194;5.532;2023-05-29T12:34:25;13.40;;;2.88;;
51556;SDS011;38766;53.194;5.532;2023-05-29T12:36:50;10.45;;;3.05;;
51556;SDS011;38766;53.194;5.532;2023-05-29T12:39:16;8.90;;;2.90;;
51556;SDS011;38766;53.194;5.532;2023-05-29T12:41:42;14.45;;;3.40;;
51556;SDS011;38766;53.194;5.532;2023-05-29T12:44:08;9.55;;;2.90;;
51556;SDS011;38766;53.194;5.532;2023-05-29T12:46:40;13.43;;;3.33;;
51556;SDS011;38766;53.194;5.532;2023-05-29T12:49:13;10.32;;;4.00;;
51556;SDS011;38766;53.194;5.532;2023-05-29T12:51:40;10.98;;;3.55;;
51556;SDS011;38766;53.194;5.532;2023-05-29T12:54:08;8.30;;;2.65;;
51556;SDS011;38766;53.194;5.532;2023-05-29T12:56:35;13.73;;;3.35;;
51556;SDS011;38766;53.194;5.532;2023-05-29T12:59:00;11.43;;;3.38;;
51556;SDS011;38766;53.194;5.532;2023-05-29T13:01:26;12.38;;;3.05;;
51556;SDS011;38766;53.194;5.532;2023-05-29T13:03:52;12.85;;;3.20;;
51556;SDS011;38766;53.194;5.532;2023-05-29T13:06:17;9.88;;;3.22;;
51556;SDS011;38766;53.194;5.532;2023-05-29T13:08:43;10.50;;;2.85;;
51556;SDS011;38766;53.194;5.532;2023-05-29T13:11:09;10.93;;;3.03;;
51556;SDS011;38766;53.194;5.532;2023-05-29T13:13:34;14.88;;;3.00;;
51556;SDS011;38766;53.194;5.532;2023-05-29T13:16:00;10.93;;;2.80;;
51556;SDS011;38766;53.194;5.532;2023-05-29T13:18:25;14.00;;;3.05;;
51556;SDS011;38766;53.194;5.532;2023-05-29T13:20:51;13.05;;;3.20;;
51556;SDS011;38766;53.194;5.532;2023-05-29T13:23:17;13.07;;;3.65;;
51556;SDS011;38766;53.194;5.532;2023-05-29T13:25:42;12.38;;;2.92;;
51556;SDS011;38766;53.194;5.532;2023-05-29T13:28:08;11.55;;;3.40;;
51556;SDS011;38766;53.194;5.532;2023-05-29T13:30:33;8.18;;;3.15;;
51556;SDS011;38766;53.194;5.532;2023-05-29T13:32:59;10.98;;;3.50;;
51556;SDS011;38766;53.194;5.532;2023-05-29T13:35:25;9.48;;;3.15;;
51556;SDS011;38766;53.194;5.532;2023-05-29T13:37:50;12.95;;;3.25;;
51556;SDS011;38766;53.194;5.532;2023-05-29T13:40:16;13.77;;;2.90;;
51556;SDS011;38766;53.194;5.532;2023-05-29T13:42:41;13.38;;;3.03;;
51556;SDS011;38766;53.194;5.532;2023-05-29T13:45:07;12.20;;;3.42;;
51556;SDS011;38766;53.194;5.532;2023-05-29T13:47:34;9.32;;;3.05;;
51556;SDS011;38766;53.194;5.532;2023-05-29T13:50:00;8.27;;;3.20;;
51556;SDS011;38766;53.194;5.532;2023-05-29T13:52:26;10.05;;;2.88;;
51556;SDS011;38766;53.194;5.532;2023-05-29T13:54:52;7.93;;;2.55;;
51556;SDS011;38766;53.194;5.532;2023-05-29T13:57:18;9.88;;;2.80;;
51556;SDS011;38766;53.194;5.532;2023-05-29T13:59:43;9.75;;;2.80;;
51556;SDS011;38766;53.194;5.532;2023-05-29T14:02:09;11.18;;;2.92;;
51556;SDS011;38766;53.194;5.532;2023-05-29T14:04:36;11.85;;;4.07;;
51556;SDS011;38766;53.194;5.532;2023-05-29T14:07:03;12.88;;;3.03;;
51556;SDS011;38766;53.194;5.532;2023-05-29T14:09:29;11.15;;;3.00;;
51556;SDS011;38766;53.194;5.532;2023-05-29T14:11:55;9.57;;;3.00;;
51556;SDS011;38766;53.194;5.532;2023-05-29T14:14:22;14.02;;;3.20;;
51556;SDS011;38766;53.194;5.532;2023-05-29T14:16:49;12.80;;;3.28;;
51556;SDS011;38766;53.194;5.532;2023-05-29T14:19:15;10.80;;;3.00;;
51556;SDS011;38766;53.194;5.532;2023-05-29T14:21:40;10.60;;;2.63;;
51556;SDS011;38766;53.194;5.532;2023-05-29T14:24:06;8.50;;;2.75;;
51556;SDS011;38766;53.194;5.532;2023-05-29T14:26:32;13.15;;;3.25;;
51556;SDS011;38766;53.194;5.532;2023-05-29T14:28:58;10.13;;;2.65;;
51556;SDS011;38766;53.194;5.532;2023-05-29T14:31:24;9.38;;;2.95;;
51556;SDS011;38766;53.194;5.532;2023-05-29T14:33:49;16.42;;;3.28;;
51556;SDS011;38766;53.194;5.532;2023-05-29T14:36:15;10.35;;;2.80;;
51556;SDS011;38766;53.194;5.532;2023-05-29T14:38:41;10.65;;;3.65;;
51556;SDS011;38766;53.194;5.532;2023-05-29T14:41:08;9.88;;;2.63;;
51556;SDS011;38766;53.194;5.532;2023-05-29T14:43:34;7.88;;;2.47;;
51556;SDS011;38766;53.194;5.532;2023-05-29T14:46:00;9.73;;;2.88;;
51556;SDS011;38766;53.194;5.532;2023-05-29T14:48:25;11.48;;;2.85;;
51556;SDS011;38766;53.194;5.532;2023-05-29T14:50:51;12.65;;;3.05;;
51556;SDS011;38766;53.194;5.532;2023-05-29T14:53:16;9.95;;;2.80;;
51556;SDS011;38766;53.194;5.532;2023-05-29T14:55:42;11.77;;;2.90;;
51556;SDS011;38766;53.194;5.532;2023-05-29T14:58:08;8.30;;;2.60;;
51556;SDS011;38766;53.194;5.532;2023-05-29T15:00:34;8.88;;;2.63;;
51556;SDS011;38766;53.194;5.532;2023-05-29T15:03:00;10.55;;;2.83;;
51556;SDS011;38766;53.194;5.532;2023-05-29T15:05:26;9.60;;;3.53;;
51556;SDS011;38766;53.194;5.532;2023-05-29T15:07:52;11.50;;;2.88;;
51556;SDS011;38766;53.194;5.532;2023-05-29T15:10:19;9.00;;;2.75;;
51556;SDS011;38766;53.194;5.532;2023-05-29T15:12:46;10.05;;;2.40;;
51556;SDS011;38766;53.194;5.532;2023-05-29T15:15:11;15.18;;;2.65;;
51556;SDS011;38766;53.194;5.532;2023-05-29T15:17:37;9.57;;;3.00;;
51556;SDS011;38766;53.194;5.532;2023-05-29T15:20:04;13.75;;;3.33;;